Main page
METAR-TAF:

METAR-TAF

Airports :

Fès–Saïs Airport

Fes, Morocco

latitude: 33-56N, longitude: 004-59W, elevation: 579 m

Current weather observation

The report was made 3 hours and 11 minutes ago, at 16:30 UTC
Wind 4 kt from the East/Northeast
Temperature 18°C
Humidity 26%
Pressure 1031 hPa
Visibility 10 km or more
no clouds below 1500 m and no cumulonimbus

METAR: GMFF 171630Z 06004KT CAVOK 18/M02 Q1031 NOSIG

Time: 20:41 (19:41 UTC)

Forecast

The report was made 2 hours and 41 minutes ago, at 17:00 UTC
Forecast valid from 17 at 18 UTC to 18 at 24 UTC
Wind 6 kt from the North/Northeast
Visibility 10 km or more
no clouds below 1500 m and no cumulonimbus
Becoming
from 18 at 11 UTC to 18 at 15 UTC
Wind 10 kt from the Northwest
Broken clouds at a height of 2600 ft

TAF: GMFF 171700Z 1718/1824 02006KT CAVOK BECMG 1811/1815 32010KT BKN026

Weather observations and forecasts of more than 4000 airports (METAR and TAF reports).

The available stations are represented by yellow and red dots on the map.

Hover mouse over dot to see the name of the station.

Then click to see weather observations and forecasts.

To change the map : click on the green buttons with a black cross to zoom in, on the green button with a dash to zoom out, or on the green arrows for adjacent maps.


METAR-TAF: